Time;durP1;ratioP1;P1;durP2;ratioP2;P2;SDS_P1;SDS_P2;PMS_P1;PMS_P2;Temp;Humidity;BMP_temperature;BMP_pressure;BME280_temperature;BME280_humidity;BME280_pressure;Samples;Min_cycle;Max_cycle;Signal;HPM_P1;HPM_P2
2022/03/05 00:00:59;;;;;;;22.07;11.07;;;3.50;45.20;;;;;;5071344;28;20027;-84
2022/03/05 00:03:25;;;;;;;19.17;10.60;;;3.40;45.20;;;;;;5068001;28;20033;-84
2022/03/05 00:05:51;;;;;;;19.43;10.90;;;3.40;45.30;;;;;;5073674;28;20051;-84
2022/03/05 00:08:17;;;;;;;20.67;10.57;;;3.40;45.60;;;;;;5069795;28;20044;-84
2022/03/05 00:10:43;;;;;;;20.30;11.00;;;3.30;45.80;;;;;;5053810;28;20044;-84
2022/03/05 00:13:09;;;;;;;36.83;12.00;;;3.30;46.10;;;;;;5051442;28;20082;-84
2022/03/05 00:15:35;;;;;;;21.00;11.00;;;3.20;46.20;;;;;;5057786;28;20032;-85
2022/03/05 00:18:01;;;;;;;19.17;11.10;;;3.20;46.30;;;;;;5062481;28;20037;-84
2022/03/05 00:20:27;;;;;;;21.67;10.53;;;3.20;46.30;;;;;;5057324;28;20024;-84
2022/03/05 00:22:53;;;;;;;16.63;9.30;;;3.20;46.40;;;;;;5057843;28;20039;-84
2022/03/05 00:25:20;;;;;;;17.83;10.03;;;3.20;46.40;;;;;;5074369;28;20048;-84
2022/03/05 00:27:46;;;;;;;16.07;9.73;;;3.20;46.40;;;;;;5075674;28;20021;-85
2022/03/05 00:30:12;;;;;;;19.00;10.77;;;3.20;46.30;;;;;;5055999;28;20378;-84
2022/03/05 00:32:38;;;;;;;19.83;10.57;;;3.20;46.20;;;;;;5068466;28;20127;-84
2022/03/05 00:35:05;;;;;;;15.23;9.17;;;3.20;46.30;;;;;;5082916;28;20040;-84
2022/03/05 00:37:31;;;;;;;16.03;9.37;;;3.20;46.20;;;;;;5056749;28;20029;-85
2022/03/05 00:39:57;;;;;;;17.37;9.20;;;3.20;46.20;;;;;;5057833;28;20028;-83
2022/03/05 00:42:23;;;;;;;16.53;10.20;;;3.10;46.20;;;;;;5067251;28;20051;-83
2022/03/05 00:44:49;;;;;;;19.87;10.57;;;3.10;46.40;;;;;;5065093;28;20039;-83
2022/03/05 00:47:15;;;;;;;17.50;10.03;;;3.10;47.10;;;;;;5075136;28;20025;-84
2022/03/05 00:49:41;;;;;;;29.10;14.30;;;3.10;46.60;;;;;;5073856;28;20398;-83
2022/03/05 00:52:07;;;;;;;24.67;11.57;;;3.00;46.60;;;;;;5075157;28;20040;-83
2022/03/05 00:54:32;;;;;;;20.73;11.40;;;3.00;46.60;;;;;;5061116;28;20036;-83
2022/03/05 00:56:58;;;;;;;19.10;10.03;;;3.00;46.70;;;;;;5057108;28;20120;-83
2022/03/05 00:59:24;;;;;;;18.40;11.07;;;2.90;47.00;;;;;;5057042;28;20082;-83
2022/03/05 01:01:49;;;;;;;19.33;11.43;;;2.90;47.20;;;;;;5055663;28;20500;-83
2022/03/05 01:04:15;;;;;;;24.90;12.13;;;2.90;47.40;;;;;;5066233;28;20028;-83
2022/03/05 01:06:41;;;;;;;18.00;10.87;;;2.90;47.40;;;;;;5055813;28;20051;-83
2022/03/05 01:09:06;;;;;;;20.53;11.83;;;2.90;47.60;;;;;;5074482;28;20047;-83
2022/03/05 01:11:32;;;;;;;20.50;10.40;;;2.80;47.70;;;;;;5042297;28;20090;-83
2022/03/05 01:13:58;;;;;;;16.80;10.90;;;2.90;47.80;;;;;;5061589;28;20068;-83
2022/03/05 01:16:24;;;;;;;21.67;11.20;;;2.80;47.80;;;;;;5055266;28;20173;-83
2022/03/05 01:18:50;;;;;;;17.43;10.77;;;2.80;47.90;;;;;;5055794;28;20039;-83
2022/03/05 01:21:16;;;;;;;18.20;10.60;;;2.80;48.00;;;;;;5056533;28;20081;-83
2022/03/05 01:23:42;;;;;;;18.63;10.80;;;2.80;48.10;;;;;;5074281;28;20028;-83
2022/03/05 01:26:08;;;;;;;22.73;10.23;;;2.70;48.20;;;;;;5072653;28;20186;-82
2022/03/05 01:28:34;;;;;;;21.40;9.87;;;2.70;48.20;;;;;;5055100;28;20361;-83
2022/03/05 01:31:00;;;;;;;18.93;9.83;;;2.60;48.20;;;;;;5056892;28;20029;-84
2022/03/05 01:33:26;;;;;;;14.30;8.77;;;2.70;48.30;;;;;;5056149;28;20044;-84
2022/03/05 01:35:52;;;;;;;14.77;9.17;;;2.70;48.20;;;;;;5050994;28;20033;-85
2022/03/05 01:38:18;;;;;;;14.53;8.37;;;2.70;48.00;;;;;;5051100;28;20529;-85
2022/03/05 01:40:46;;;;;;;16.10;8.37;;;2.60;48.00;;;;;;5058356;28;20290;-84
2022/03/05 01:43:12;;;;;;;18.77;8.33;;;2.60;48.10;;;;;;5073878;28;20764;-84
2022/03/05 01:45:39;;;;;;;17.17;8.00;;;2.50;48.10;;;;;;5074094;28;22077;-84
2022/03/05 01:48:05;;;;;;;12.90;7.77;;;2.50;48.30;;;;;;5063504;28;20488;-83
2022/03/05 01:50:31;;;;;;;15.87;8.77;;;2.40;48.30;;;;;;5064158;28;20116;-84
2022/03/05 01:52:57;;;;;;;15.60;9.17;;;2.40;48.40;;;;;;5046244;28;20322;-84
2022/03/05 01:55:24;;;;;;;16.40;8.73;;;2.40;48.30;;;;;;5055808;28;20496;-84
2022/03/05 01:57:50;;;;;;;14.63;8.07;;;2.40;48.30;;;;;;5056119;28;20340;-84
2022/03/05 02:00:16;;;;;;;14.00;7.93;;;2.40;48.30;;;;;;5047779;28;20282;-84
2022/03/05 02:02:43;;;;;;;16.37;8.03;;;2.30;48.40;;;;;;5054298;28;20032;-84
2022/03/05 02:05:10;;;;;;;15.47;8.10;;;2.30;48.50;;;;;;5055225;28;20287;-84
2022/03/05 02:07:36;;;;;;;14.73;7.47;;;2.30;48.60;;;;;;5074189;28;20277;-84
2022/03/05 02:10:03;;;;;;;17.20;9.33;;;2.30;48.70;;;;;;5051937;28;20329;-84
2022/03/05 02:12:31;;;;;;;19.67;12.40;;;2.30;48.60;;;;;;5060239;28;20295;-83
2022/03/05 02:14:58;;;;;;;20.87;11.67;;;2.20;48.70;;;;;;5049078;28;20781;-83
2022/03/05 02:17:27;;;;;;;19.83;12.50;;;2.20;48.70;;;;;;5065344;28;20056;-83
2022/03/05 02:19:54;;;;;;;21.83;12.40;;;2.20;48.80;;;;;;5051323;28;20283;-83
2022/03/05 02:22:20;;;;;;;18.80;10.83;;;2.20;48.70;;;;;;5063376;28;20794;-83
2022/03/05 02:24:49;;;;;;;17.20;9.67;;;2.20;48.70;;;;;;5049145;28;20358;-83
2022/03/05 02:27:15;;;;;;;17.80;9.90;;;2.10;48.80;;;;;;5051479;28;20091;-83
2022/03/05 02:29:41;;;;;;;19.30;9.87;;;2.10;48.70;;;;;;5051145;28;20068;-83
2022/03/05 02:32:07;;;;;;;17.40;9.73;;;2.10;48.90;;;;;;5052741;28;20033;-83
2022/03/05 02:34:33;;;;;;;15.30;9.27;;;2.00;49.00;;;;;;5055549;28;20043;-83
2022/03/05 02:36:59;;;;;;;16.03;9.17;;;2.00;49.10;;;;;;5052409;28;20279;-84
2022/03/05 02:39:25;;;;;;;15.07;9.10;;;2.00;49.00;;;;;;5058433;28;20031;-83
2022/03/05 02:41:55;;;;;;;11.93;7.03;;;2.10;49.00;;;;;;5049089;28;20338;-82
2022/03/05 02:44:21;;;;;;;13.10;7.37;;;2.10;49.00;;;;;;5051739;28;20280;-83
2022/03/05 02:46:47;;;;;;;14.27;8.00;;;2.10;48.90;;;;;;5070713;28;20302;-83
2022/03/05 02:49:13;;;;;;;14.93;7.67;;;2.10;48.80;;;;;;5052271;28;20275;-83
2022/03/05 02:51:38;;;;;;;13.37;7.13;;;2.10;48.80;;;;;;5052820;28;20021;-83
2022/03/05 02:54:04;;;;;;;14.53;7.30;;;2.00;48.70;;;;;;5051379;28;20033;-83
2022/03/05 02:56:30;;;;;;;14.43;7.73;;;2.00;48.70;;;;;;5045118;28;20034;-83
2022/03/05 02:58:57;;;;;;;11.73;6.77;;;2.00;48.70;;;;;;5047297;28;21269;-83
2022/03/05 03:01:24;;;;;;;13.07;7.53;;;2.00;48.70;;;;;;5052138;28;20594;-83
2022/03/05 03:03:50;;;;;;;11.40;7.13;;;2.00;48.70;;;;;;5050332;28;20337;-83
2022/03/05 03:06:16;;;;;;;12.47;7.00;;;2.00;48.80;;;;;;5052740;28;20672;-82
2022/03/05 03:08:42;;;;;;;13.60;7.87;;;1.90;48.80;;;;;;5051489;28;20063;-83
2022/03/05 03:11:08;;;;;;;13.80;8.17;;;1.90;48.90;;;;;;5056952;28;20078;-83
2022/03/05 03:13:33;;;;;;;13.90;8.23;;;1.90;49.00;;;;;;5042740;28;20692;-83
2022/03/05 03:15:59;;;;;;;16.77;9.47;;;1.90;49.00;;;;;;5052312;28;20029;-84
2022/03/05 03:18:25;;;;;;;19.30;9.50;;;1.90;48.90;;;;;;5051278;28;20028;-83
2022/03/05 03:20:51;;;;;;;16.50;8.33;;;1.80;48.80;;;;;;5049587;28;20063;-83
2022/03/05 03:23:16;;;;;;;18.47;8.90;;;1.70;49.00;;;;;;5049557;28;20025;-83
2022/03/05 03:25:42;;;;;;;14.87;7.60;;;1.70;49.20;;;;;;5050742;28;20060;-83
2022/03/05 03:28:08;;;;;;;12.57;7.37;;;1.70;49.20;;;;;;5045313;28;20039;-84
2022/03/05 03:30:34;;;;;;;16.93;8.53;;;1.70;49.20;;;;;;5056508;28;20025;-83
2022/03/05 03:33:00;;;;;;;16.00;8.23;;;1.70;49.20;;;;;;5049644;28;20680;-84
2022/03/05 03:35:27;;;;;;;15.07;7.83;;;1.60;49.40;;;;;;5048968;28;20807;-83
2022/03/05 03:37:54;;;;;;;17.67;8.10;;;1.60;49.30;;;;;;5052425;28;20284;-83
2022/03/05 03:40:20;;;;;;;15.40;8.07;;;1.60;49.40;;;;;;5051311;28;21047;-83
2022/03/05 03:42:48;;;;;;;15.37;8.43;;;1.60;49.40;;;;;;5048283;28;20284;-83
2022/03/05 03:45:15;;;;;;;13.23;8.27;;;1.50;49.40;;;;;;5056252;28;20288;-83
2022/03/05 03:47:45;;;;;;;13.67;8.07;;;1.50;49.50;;;;;;5051605;28;20653;-83
2022/03/05 03:50:12;;;;;;;12.93;7.10;;;1.50;49.60;;;;;;5052536;28;20274;-83
2022/03/05 03:52:38;;;;;;;12.40;6.90;;;1.40;49.60;;;;;;5050901;28;20295;-83
2022/03/05 03:55:07;;;;;;;12.17;6.70;;;1.40;49.60;;;;;;5064158;28;20337;-84
2022/03/05 03:57:33;;;;;;;11.37;6.53;;;1.40;49.50;;;;;;5050536;28;20025;-83
2022/03/05 03:59:59;;;;;;;11.50;6.50;;;1.50;49.30;;;;;;5057481;28;20271;-83
2022/03/05 04:02:25;;;;;;;11.53;6.63;;;1.50;49.10;;;;;;5052231;28;20056;-84
2022/03/05 04:04:51;;;;;;;11.93;6.33;;;1.50;48.90;;;;;;5050691;28;20055;-84
2022/03/05 04:10:03;;;;;;;14.33;6.80;;;1.40;49.00;;;;;;5066023;28;20059;-84
2022/03/05 04:12:29;;;;;;;10.67;6.17;;;1.40;49.10;;;;;;5071962;28;20325;-84
2022/03/05 04:14:54;;;;;;;14.47;6.73;;;1.40;49.10;;;;;;5052945;28;20687;-84
2022/03/05 04:17:22;;;;;;;13.50;6.33;;;1.40;49.00;;;;;;5049185;28;20051;-84
2022/03/05 04:19:48;;;;;;;15.00;7.47;;;1.40;49.00;;;;;;5052453;28;20060;-84
2022/03/05 04:22:14;;;;;;;12.47;7.03;;;1.50;48.90;;;;;;5057356;28;20263;-84
2022/03/05 04:24:40;;;;;;;11.43;6.57;;;1.50;48.90;;;;;;5041973;28;20863;-83
2022/03/05 04:27:06;;;;;;;13.33;6.90;;;1.50;49.00;;;;;;5068303;28;20035;-84
2022/03/05 04:29:32;;;;;;;12.30;6.87;;;1.40;49.10;;;;;;5063889;28;20278;-84
2022/03/05 04:31:58;;;;;;;14.67;7.43;;;1.40;49.20;;;;;;5070811;28;20748;-84
2022/03/05 04:34:24;;;;;;;13.67;7.33;;;1.40;49.30;;;;;;5071622;28;20289;-83
2022/03/05 04:36:50;;;;;;;14.33;6.93;;;1.30;49.40;;;;;;5053283;28;20470;-84
2022/03/05 04:39:15;;;;;;;11.63;6.80;;;1.30;49.50;;;;;;5055149;28;20032;-84
2022/03/05 04:41:42;;;;;;;12.37;6.73;;;1.30;49.50;;;;;;5057140;28;20036;-83
2022/03/05 04:44:08;;;;;;;11.93;6.80;;;1.20;49.50;;;;;;5065421;28;20039;-84
2022/03/05 04:46:34;;;;;;;14.77;7.93;;;1.10;49.50;;;;;;5074129;28;20293;-84
2022/03/05 04:49:00;;;;;;;11.23;6.90;;;1.10;49.60;;;;;;5058585;28;20768;-84
2022/03/05 04:51:26;;;;;;;12.80;7.17;;;1.00;49.80;;;;;;5075679;28;20082;-84
2022/03/05 04:53:51;;;;;;;11.97;6.90;;;1.00;49.80;;;;;;5057178;28;20383;-84
2022/03/05 04:56:17;;;;;;;12.57;6.90;;;1.10;49.80;;;;;;5056852;28;20033;-84
2022/03/05 04:58:43;;;;;;;11.93;6.67;;;1.10;49.70;;;;;;5056838;28;20036;-83
2022/03/05 05:01:09;;;;;;;15.30;6.73;;;1.10;49.70;;;;;;5057405;28;20414;-83
2022/03/05 05:03:34;;;;;;;11.87;6.80;;;1.20;49.50;;;;;;5057589;28;20360;-83
2022/03/05 05:06:00;;;;;;;15.70;6.93;;;1.20;49.30;;;;;;5075030;28;20032;-82
2022/03/05 05:08:26;;;;;;;12.83;6.97;;;1.20;49.30;;;;;;5052813;28;20044;-84
2022/03/05 05:10:52;;;;;;;13.67;7.27;;;1.20;49.20;;;;;;5055630;28;20040;-85
2022/03/05 05:13:18;;;;;;;14.60;7.10;;;1.20;49.50;;;;;;5056598;28;20036;-83
2022/03/05 05:15:45;;;;;;;12.70;6.60;;;1.20;49.20;;;;;;5051504;28;20064;-84
2022/03/05 05:18:11;;;;;;;13.57;6.93;;;1.20;49.10;;;;;;5055016;28;20291;-84
2022/03/05 05:20:37;;;;;;;12.67;6.03;;;1.20;49.00;;;;;;5072617;28;20278;-84
2022/03/05 05:23:03;;;;;;;12.67;6.73;;;1.20;48.90;;;;;;5072420;28;20031;-83
2022/03/05 05:25:29;;;;;;;14.23;6.63;;;1.20;49.00;;;;;;5055990;28;20029;-83
2022/03/05 05:27:54;;;;;;;17.33;6.63;;;1.20;49.10;;;;;;5072644;28;20028;-84
2022/03/05 05:30:20;;;;;;;15.20;7.07;;;1.20;49.00;;;;;;5056499;28;20029;-84
2022/03/05 05:32:46;;;;;;;15.33;6.70;;;1.20;49.00;;;;;;5062375;28;20036;-84
2022/03/05 05:35:12;;;;;;;14.30;7.07;;;1.10;49.00;;;;;;5052892;28;20471;-85
2022/03/05 05:37:37;;;;;;;13.13;7.23;;;1.00;49.20;;;;;;5067817;28;20038;-84
2022/03/05 05:40:04;;;;;;;17.57;8.23;;;0.90;49.40;;;;;;5055414;28;20024;-84
2022/03/05 05:42:29;;;;;;;16.80;7.93;;;0.80;49.50;;;;;;5055746;28;20028;-84
2022/03/05 05:44:55;;;;;;;17.63;8.40;;;0.80;49.70;;;;;;5056608;28;20337;-84
2022/03/05 05:47:21;;;;;;;18.70;8.73;;;0.80;49.70;;;;;;5054602;28;20063;-84
2022/03/05 05:49:47;;;;;;;15.17;8.27;;;0.70;49.80;;;;;;5073843;28;20138;-84
2022/03/05 05:52:12;;;;;;;12.63;7.17;;;0.70;50.00;;;;;;5055312;28;20067;-85
2022/03/05 05:54:38;;;;;;;16.30;8.83;;;0.60;50.10;;;;;;5073866;28;20043;-84
2022/03/05 05:57:04;;;;;;;20.20;8.00;;;0.70;50.40;;;;;;5055433;28;20035;-84
2022/03/05 05:59:30;;;;;;;13.20;7.33;;;0.70;50.30;;;;;;5056040;28;20024;-84
2022/03/05 06:01:56;;;;;;;16.00;9.07;;;0.70;50.30;;;;;;5071946;28;20734;-84
2022/03/05 06:04:22;;;;;;;18.80;10.43;;;0.70;50.30;;;;;;5054659;28;20119;-84
2022/03/05 06:06:48;;;;;;;16.17;10.30;;;0.70;50.40;;;;;;5053735;28;20436;-84
2022/03/05 06:09:13;;;;;;;19.27;10.40;;;0.70;50.20;;;;;;5072796;28;20056;-84
2022/03/05 06:11:39;;;;;;;18.83;10.60;;;0.70;50.20;;;;;;5048160;28;20473;-84
2022/03/05 06:14:07;;;;;;;19.00;9.77;;;0.70;50.30;;;;;;5049128;28;20037;-84
2022/03/05 06:16:34;;;;;;;18.23;10.73;;;0.60;50.50;;;;;;5052218;28;20032;-83
2022/03/05 06:19:00;;;;;;;22.83;10.43;;;0.50;50.70;;;;;;5053464;28;20288;-84
2022/03/05 06:21:26;;;;;;;23.93;11.20;;;0.50;50.90;;;;;;5054558;28;20356;-84
2022/03/05 06:23:51;;;;;;;22.20;11.73;;;0.40;51.10;;;;;;5054531;28;20283;-84
2022/03/05 06:26:18;;;;;;;19.63;11.27;;;0.40;51.30;;;;;;5055376;28;20058;-84
2022/03/05 06:28:44;;;;;;;18.90;10.47;;;0.40;51.40;;;;;;5070148;28;20035;-84
2022/03/05 06:31:10;;;;;;;26.33;11.37;;;0.40;51.40;;;;;;5053781;28;20664;-84
2022/03/05 06:33:36;;;;;;;21.60;11.87;;;0.50;51.40;;;;;;5079142;28;20032;-84
2022/03/05 06:36:02;;;;;;;23.00;13.43;;;0.50;51.50;;;;;;5055393;28;20116;-84
2022/03/05 06:38:28;;;;;;;29.37;15.93;;;0.60;51.40;;;;;;5053570;28;20857;-84
2022/03/05 06:40:54;;;;;;;29.70;15.93;;;0.60;51.40;;;;;;5055147;28;20286;-84
2022/03/05 06:43:19;;;;;;;27.50;14.20;;;0.60;51.40;;;;;;5064460;28;20017;-84
2022/03/05 06:45:45;;;;;;;28.53;15.27;;;0.60;51.40;;;;;;5069278;28;20021;-84
2022/03/05 06:48:11;;;;;;;25.87;15.03;;;0.60;51.40;;;;;;5060567;28;20032;-84
2022/03/05 06:50:38;;;;;;;23.83;13.90;;;0.60;51.50;;;;;;5057933;28;20520;-84
2022/03/05 06:53:05;;;;;;;24.73;13.50;;;0.60;51.60;;;;;;5055648;28;20538;-84
2022/03/05 06:55:30;;;;;;;27.30;14.37;;;0.60;51.70;;;;;;5064548;28;20633;-84
2022/03/05 06:57:56;;;;;;;23.30;13.40;;;0.60;51.70;;;;;;5053015;28;20275;-84
2022/03/05 07:00:22;;;;;;;25.97;14.93;;;0.70;51.80;;;;;;5053693;28;20489;-84
2022/03/05 07:02:48;;;;;;;33.03;17.50;;;0.70;51.70;;;;;;5047858;28;20039;-84
2022/03/05 07:05:14;;;;;;;35.37;20.63;;;0.70;51.60;;;;;;5054664;28;20028;-84
2022/03/05 07:07:40;;;;;;;20.60;11.70;;;0.80;51.60;;;;;;5056945;28;20041;-84
2022/03/05 07:10:06;;;;;;;19.23;10.27;;;0.80;51.50;;;;;;5080666;28;20289;-84
2022/03/05 07:12:32;;;;;;;25.97;14.37;;;0.80;51.40;;;;;;5052532;28;20036;-84
2022/03/05 07:14:58;;;;;;;27.87;15.00;;;0.80;51.40;;;;;;5063946;28;20339;-84
2022/03/05 07:17:25;;;;;;;28.77;15.17;;;0.80;51.40;;;;;;5073899;28;20291;-84
2022/03/05 07:19:51;;;;;;;25.03;13.80;;;0.80;52.00;;;;;;5055367;28;20071;-84
2022/03/05 07:22:17;;;;;;;28.13;15.40;;;0.80;51.50;;;;;;5054629;28;20353;-84
2022/03/05 07:24:43;;;;;;;26.63;14.70;;;0.90;51.40;;;;;;5059704;28;20263;-84
2022/03/05 07:27:09;;;;;;;31.23;16.23;;;0.90;51.30;;;;;;5059613;28;20640;-84
2022/03/05 07:29:35;;;;;;;33.50;18.00;;;1.00;51.20;;;;;;5076978;28;20016;-83
2022/03/05 07:32:03;;;;;;;35.13;19.07;;;1.00;51.00;;;;;;5066423;28;20028;-84
2022/03/05 07:34:30;;;;;;;25.20;15.90;;;1.00;50.90;;;;;;5062398;28;20029;-83
2022/03/05 07:36:56;;;;;;;39.10;21.37;;;1.00;50.90;;;;;;5051620;28;20275;-84
2022/03/05 07:39:22;;;;;;;72.20;35.00;;;1.00;50.80;;;;;;5062304;28;20289;-84
2022/03/05 07:41:48;;;;;;;57.87;29.00;;;1.10;50.80;;;;;;5050369;28;20271;-83
2022/03/05 07:44:14;;;;;;;53.10;26.67;;;1.10;50.80;;;;;;5072673;28;20021;-84
2022/03/05 07:46:39;;;;;;;50.40;26.40;;;1.10;50.50;;;;;;5054592;28;20437;-84
2022/03/05 07:49:05;;;;;;;32.30;19.50;;;1.20;50.50;;;;;;5054457;28;20035;-84
2022/03/05 07:51:32;;;;;;;30.20;15.40;;;1.30;50.50;;;;;;5057856;28;20028;-84
2022/03/05 07:53:58;;;;;;;33.20;17.27;;;1.30;50.30;;;;;;5081194;28;20033;-84
2022/03/05 07:56:23;;;;;;;32.33;17.57;;;1.30;50.30;;;;;;5051785;28;20393;-83
2022/03/05 07:58:49;;;;;;;31.57;17.23;;;1.40;50.30;;;;;;5088917;28;20044;-84
2022/03/05 08:01:15;;;;;;;27.63;15.50;;;1.40;50.20;;;;;;5050351;28;20021;-84
2022/03/05 08:03:40;;;;;;;25.97;15.40;;;1.40;50.30;;;;;;5054608;28;20025;-84
2022/03/05 08:06:06;;;;;;;26.67;14.50;;;1.40;50.40;;;;;;5063719;28;20079;-84
2022/03/05 08:08:32;;;;;;;23.73;13.13;;;1.40;50.30;;;;;;5074041;28;20508;-84
2022/03/05 08:10:58;;;;;;;22.93;13.23;;;1.40;50.30;;;;;;5067417;28;20077;-84
2022/03/05 08:13:23;;;;;;;23.10;12.37;;;1.50;50.20;;;;;;5065278;28;20032;-84
2022/03/05 08:15:49;;;;;;;31.20;12.60;;;1.50;50.10;;;;;;5070732;28;20035;-84
2022/03/05 08:18:15;;;;;;;20.67;11.87;;;1.50;50.00;;;;;;5070091;28;20480;-85
2022/03/05 08:20:41;;;;;;;19.00;11.03;;;1.50;50.00;;;;;;5076617;28;20024;-85
2022/03/05 08:23:07;;;;;;;17.73;11.30;;;1.90;50.10;;;;;;5072018;28;20469;-85
2022/03/05 08:25:33;;;;;;;18.80;11.83;;;3.30;50.30;;;;;;5068814;28;20091;-85
2022/03/05 08:27:58;;;;;;;21.63;13.33;;;4.60;49.30;;;;;;5071675;28;20060;-85
2022/03/05 08:30:24;;;;;;;19.85;13.18;;;5.60;48.60;;;;;;5053992;28;20078;-85
2022/03/05 08:32:51;;;;;;;18.95;12.15;;;6.60;48.40;;;;;;5059576;28;20094;-85
2022/03/05 08:35:18;;;;;;;14.30;10.80;;;7.50;48.00;;;;;;5052563;28;20822;-85
2022/03/05 08:37:44;;;;;;;16.27;10.93;;;8.30;47.00;;;;;;5067147;28;20049;-85
2022/03/05 08:40:11;;;;;;;14.73;11.25;;;8.90;45.90;;;;;;5058739;28;20054;-85
2022/03/05 08:42:38;;;;;;;15.52;11.30;;;9.40;44.00;;;;;;5068208;28;20017;-85
2022/03/05 08:45:05;;;;;;;18.85;10.63;;;10.10;40.90;;;;;;5073221;28;20016;-85
2022/03/05 08:47:31;;;;;;;12.48;10.18;;;9.80;40.50;;;;;;5055955;28;20064;-86
2022/03/05 08:49:57;;;;;;;15.67;11.83;;;9.10;41.20;;;;;;5071025;28;20048;-85
2022/03/05 08:52:22;;;;;;;14.53;10.80;;;8.40;41.40;;;;;;5069790;28;20063;-85
2022/03/05 08:54:48;;;;;;;17.07;11.00;;;7.80;41.40;;;;;;5073526;28;20025;-85
2022/03/05 08:57:15;;;;;;;16.47;10.90;;;7.40;41.60;;;;;;5054678;28;20028;-86
2022/03/05 08:59:40;;;;;;;14.57;10.43;;;7.00;41.50;;;;;;5045692;28;20024;-85
2022/03/05 09:02:06;;;;;;;15.77;11.03;;;6.80;41.70;;;;;;5066673;28;20028;-86
2022/03/05 09:04:33;;;;;;;14.87;10.50;;;6.70;41.50;;;;;;5070118;28;20017;-85
2022/03/05 09:06:59;;;;;;;17.73;11.43;;;6.40;41.10;;;;;;5073160;28;20036;-85
2022/03/05 09:09:25;;;;;;;15.80;10.47;;;6.30;41.00;;;;;;5070793;28;20075;-85
2022/03/05 09:11:51;;;;;;;17.07;11.23;;;6.30;41.20;;;;;;5074452;28;20028;-86
2022/03/05 09:14:16;;;;;;;22.13;12.33;;;6.30;41.10;;;;;;5054122;28;20394;-86
2022/03/05 09:16:42;;;;;;;15.93;10.53;;;6.40;41.60;;;;;;5056094;28;20379;-86
2022/03/05 09:19:08;;;;;;;19.90;10.43;;;6.50;41.70;;;;;;5057014;28;20453;-85
2022/03/05 09:21:35;;;;;;;27.03;11.77;;;6.50;41.00;;;;;;5074144;28;20025;-85
2022/03/05 09:24:02;;;;;;;16.40;10.93;;;6.60;40.90;;;;;;5073041;28;20114;-87
2022/03/05 09:26:27;;;;;;;17.40;11.37;;;6.70;40.70;;;;;;5055320;28;20020;-85
2022/03/05 09:28:53;;;;;;;20.40;11.03;;;6.70;40.70;;;;;;5056527;28;20135;-85
2022/03/05 09:31:19;;;;;;;27.43;15.33;;;6.80;40.60;;;;;;5053941;28;20025;-85
2022/03/05 09:33:45;;;;;;;22.53;12.80;;;6.80;40.40;;;;;;5055967;28;20098;-85
2022/03/05 09:36:11;;;;;;;23.80;13.10;;;6.80;40.40;;;;;;5046800;28;20033;-85
2022/03/05 09:38:37;;;;;;;63.20;28.73;;;6.90;40.40;;;;;;5057866;28;20032;-85
2022/03/05 09:41:05;;;;;;;28.83;16.00;;;7.00;40.40;;;;;;5072900;28;20028;-85
2022/03/05 09:43:30;;;;;;;17.77;11.87;;;7.20;40.30;;;;;;5055317;28;20032;-85
2022/03/05 09:45:58;;;;;;;15.77;11.10;;;7.30;40.20;;;;;;5054915;28;20029;-83
2022/03/05 09:48:25;;;;;;;18.97;11.53;;;7.50;40.10;;;;;;5057115;28;20024;-85
2022/03/05 09:50:51;;;;;;;17.23;12.03;;;7.50;39.60;;;;;;5051392;28;20033;-84
2022/03/05 09:53:18;;;;;;;19.17;12.40;;;7.50;39.60;;;;;;5066349;28;20047;-85
2022/03/05 09:55:44;;;;;;;19.13;12.53;;;7.70;39.50;;;;;;5074510;28;20036;-85
2022/03/05 09:58:10;;;;;;;14.53;10.63;;;7.70;39.10;;;;;;5073980;28;20700;-86
2022/03/05 10:00:38;;;;;;;17.20;10.20;;;7.70;38.90;;;;;;5074239;28;20101;-86
2022/03/05 10:03:11;;;;;;;16.67;11.23;;;7.70;38.90;;;;;;5056436;28;20656;-85
2022/03/05 10:05:37;;;;;;;15.43;9.97;;;7.70;38.50;;;;;;5056411;28;20024;-85
2022/03/05 10:08:20;;;;;;;16.73;11.53;;;7.90;38.70;;;;;;5055658;28;20131;-85
2022/03/05 10:10:53;;;;;;;14.80;10.65;;;8.10;38.30;;;;;;5055949;28;20028;-85
2022/03/05 10:13:18;;;;;;;;;;;8.20;38.10;;;;;;5056577;28;20516;-85
2022/03/05 10:15:45;;;;;;;16.83;11.03;;;8.30;38.20;;;;;;5055700;28;19908;-85
2022/03/05 10:18:10;;;;;;;18.03;12.17;;;8.40;38.00;;;;;;5066478;28;20031;-85
2022/03/05 10:20:45;;;;;;;20.10;12.27;;;8.30;37.50;;;;;;5057813;28;20021;-85
2022/03/05 10:23:12;;;;;;;16.90;10.30;;;8.40;37.50;;;;;;5036828;28;20021;-85
2022/03/05 10:25:46;;;;;;;20.03;10.13;;;8.60;37.20;;;;;;5043432;28;20107;-85
2022/03/05 10:28:20;;;;;;;18.67;12.37;;;8.60;36.50;;;;;;5074825;28;20021;-85
2022/03/05 10:30:51;;;;;;;18.33;11.90;;;8.40;36.40;;;;;;5056379;28;20056;-84
2022/03/05 10:33:30;;;;;;;14.90;10.47;;;8.30;36.70;;;;;;5074407;28;20058;-85
2022/03/05 10:35:59;;;;;;;21.93;11.07;;;8.50;36.40;;;;;;5055826;28;20017;-85
2022/03/05 10:38:51;;;;;;;17.13;10.50;;;8.50;36.30;;;;;;5055762;28;20025;-85
2022/03/05 10:41:35;;;;;;;15.98;12.25;;;8.80;36.10;;;;;;5062016;28;20645;-85
2022/03/05 10:44:17;;;;;;;14.00;10.20;;;9.10;35.70;;;;;;5052643;28;20021;-85
2022/03/05 10:46:59;;;;;;;13.23;9.23;;;9.30;35.60;;;;;;5045693;28;20475;-85
2022/03/05 10:49:33;;;;;;;12.47;8.97;;;9.40;35.40;;;;;;5051975;28;20032;-85
2022/03/05 10:52:02;;;;;;;16.67;9.70;;;9.50;35.20;;;;;;5062636;28;20031;-85
2022/03/05 10:54:39;;;;;;;14.80;10.37;;;9.60;35.10;;;;;;5073139;28;20033;-85
2022/03/05 10:57:10;;;;;;;19.27;10.70;;;9.70;34.80;;;;;;5055198;28;20021;-84
2022/03/05 10:59:39;;;;;;;14.03;9.27;;;9.80;34.60;;;;;;5055156;28;20024;-84
2022/03/05 11:02:06;;;;;;;13.40;9.30;;;9.80;34.50;;;;;;5081810;28;20618;-85
2022/03/05 11:04:35;;;;;;;14.63;10.00;;;9.80;34.70;;;;;;5075160;28;20020;-85
2022/03/05 11:07:02;;;;;;;11.57;9.30;;;9.90;34.50;;;;;;5054796;28;20032;-84
2022/03/05 11:09:30;;;;;;;14.23;10.30;;;9.90;34.50;;;;;;5071593;28;20041;-85
2022/03/05 11:11:58;;;;;;;14.63;10.10;;;9.90;34.20;;;;;;5072326;28;20021;-85
2022/03/05 11:14:25;;;;;;;15.13;9.33;;;9.90;34.00;;;;;;5054741;28;20021;-85
2022/03/05 11:16:51;;;;;;;16.33;10.83;;;9.90;34.10;;;;;;5055185;28;20059;-85
2022/03/05 11:19:17;;;;;;;15.63;10.70;;;10.00;33.90;;;;;;5072872;28;20024;-85
2022/03/05 11:21:43;;;;;;;16.00;10.77;;;10.00;33.90;;;;;;5048266;28;20025;-84
2022/03/05 11:24:13;;;;;;;14.03;10.87;;;10.00;33.70;;;;;;5070789;28;20440;-85
2022/03/05 11:26:39;;;;;;;13.70;9.67;;;9.90;33.50;;;;;;5062466;28;20424;-84
2022/03/05 11:29:05;;;;;;;14.90;10.13;;;9.90;33.70;;;;;;5055414;28;20402;-84
2022/03/05 11:31:33;;;;;;;14.10;10.53;;;10.00;33.70;;;;;;5053808;28;20020;-84
2022/03/05 11:34:13;;;;;;;15.03;10.90;;;10.00;33.40;;;;;;5060499;28;21486;-84
2022/03/05 11:36:40;;;;;;;17.70;11.47;;;9.90;33.30;;;;;;5046632;28;20075;-85
2022/03/05 11:39:11;;;;;;;18.17;11.27;;;10.00;33.50;;;;;;5054186;28;20021;-85
2022/03/05 11:42:09;;;;;;;13.83;9.20;;;10.00;33.30;;;;;;5049373;28;20622;-85
2022/03/05 11:44:40;;;;;;;17.17;11.63;;;10.20;33.50;;;;;;5038277;28;20028;-85
2022/03/05 11:47:26;;;;;;;15.80;12.13;;;10.40;33.40;;;;;;5061192;28;20116;-84
2022/03/05 11:49:55;;;;;;;22.80;19.90;;;10.40;33.00;;;;;;5072168;28;20024;-85
2022/03/05 11:52:21;;;;;;;19.57;15.30;;;10.50;33.10;;;;;;5054565;28;20108;-84
2022/03/05 11:55:14;;;;;;;19.37;13.73;;;10.40;32.80;;;;;;5054631;28;20070;-82
2022/03/05 11:57:52;;;;;;;14.75;10.70;;;10.50;32.70;;;;;;5051070;28;20043;-82
2022/03/05 12:00:25;;;;;;;19.37;12.67;;;10.50;32.90;;;;;;5051441;28;20036;-83
2022/03/05 12:02:54;;;;;;;14.57;11.03;;;10.60;32.60;;;;;;5057687;28;20221;-83
2022/03/05 12:05:38;;;;;;;14.80;10.20;;;10.60;32.60;;;;;;5057967;28;20577;-83
2022/03/05 12:08:09;;;;;;;15.60;10.10;;;10.70;32.50;;;;;;5068754;28;20044;-83
2022/03/05 12:10:38;;;;;;;15.73;11.00;;;10.50;32.00;;;;;;5048039;28;20482;-83
2022/03/05 12:13:10;;;;;;;16.30;11.77;;;10.40;32.10;;;;;;5053940;28;20061;-82
2022/03/05 12:15:40;;;;;;;14.60;10.60;;;10.30;32.10;;;;;;5068537;28;20035;-83
2022/03/05 12:18:09;;;;;;;16.20;11.60;;;10.20;32.00;;;;;;5054515;28;20032;-81
2022/03/05 12:20:38;;;;;;;15.70;11.60;;;10.20;32.30;;;;;;5071485;28;20447;-83
2022/03/05 12:23:22;;;;;;;15.23;11.03;;;10.40;32.30;;;;;;5048621;28;20409;-83
2022/03/05 12:25:49;;;;;;;20.17;11.80;;;10.50;31.90;;;;;;5034718;28;20083;-82
2022/03/05 12:28:21;;;;;;;18.67;12.27;;;10.60;32.00;;;;;;5042824;28;20613;-83
2022/03/05 12:30:47;;;;;;;19.23;12.05;;;10.70;31.90;;;;;;5049377;28;20043;-82
2022/03/05 12:33:18;;;;;;;21.77;14.17;;;10.70;31.80;;;;;;5051869;28;20508;-82
2022/03/05 12:35:45;;;;;;;20.03;14.63;;;10.80;31.80;;;;;;5041524;28;20035;-83
2022/03/05 12:38:16;;;;;;;16.20;11.43;;;10.80;31.80;;;;;;5054118;28;20024;-83
2022/03/05 12:40:42;;;;;;;17.50;12.57;;;10.90;31.80;;;;;;5049680;28;20024;-83
2022/03/05 12:43:08;;;;;;;16.80;10.90;;;11.00;31.80;;;;;;5071391;28;20020;-82